sensor_id;sensor_type;location;lat;lon;timestamp;P1;durP1;ratioP1;P2;durP2;ratioP2
5428;SDS011;2737;52.386;9.980;2022-08-19T00:02:01;12.87;;;7.30;;
5428;SDS011;2737;52.386;9.980;2022-08-19T00:04:31;11.30;;;7.33;;
5428;SDS011;2737;52.386;9.980;2022-08-19T00:07:03;13.27;;;6.77;;
5428;SDS011;2737;52.386;9.980;2022-08-19T00:09:30;10.60;;;7.23;;
5428;SDS011;2737;52.386;9.980;2022-08-19T00:11:59;10.00;;;6.37;;
5428;SDS011;2737;52.386;9.980;2022-08-19T00:14:28;14.53;;;7.00;;
5428;SDS011;2737;52.386;9.980;2022-08-19T00:16:56;11.97;;;6.73;;
5428;SDS011;2737;52.386;9.980;2022-08-19T00:19:23;11.90;;;6.97;;
5428;SDS011;2737;52.386;9.980;2022-08-19T00:21:51;14.53;;;7.43;;
5428;SDS011;2737;52.386;9.980;2022-08-19T00:24:21;13.30;;;7.50;;
5428;SDS011;2737;52.386;9.980;2022-08-19T00:26:48;13.43;;;6.70;;
5428;SDS011;2737;52.386;9.980;2022-08-19T00:29:18;11.30;;;7.57;;
5428;SDS011;2737;52.386;9.980;2022-08-19T00:31:47;13.00;;;8.03;;
5428;SDS011;2737;52.386;9.980;2022-08-19T00:34:15;15.07;;;8.50;;
5428;SDS011;2737;52.386;9.980;2022-08-19T00:36:42;12.60;;;7.00;;
5428;SDS011;2737;52.386;9.980;2022-08-19T00:39:10;11.63;;;6.70;;
5428;SDS011;2737;52.386;9.980;2022-08-19T00:41:38;10.53;;;7.07;;
5428;SDS011;2737;52.386;9.980;2022-08-19T00:44:06;11.03;;;7.30;;
5428;SDS011;2737;52.386;9.980;2022-08-19T00:46:39;13.80;;;8.40;;
5428;SDS011;2737;52.386;9.980;2022-08-19T00:49:09;14.63;;;8.20;;
5428;SDS011;2737;52.386;9.980;2022-08-19T00:51:39;12.87;;;7.87;;
5428;SDS011;2737;52.386;9.980;2022-08-19T00:54:08;13.43;;;7.43;;
5428;SDS011;2737;52.386;9.980;2022-08-19T00:56:36;14.73;;;8.63;;
5428;SDS011;2737;52.386;9.980;2022-08-19T00:59:03;11.10;;;8.77;;
5428;SDS011;2737;52.386;9.980;2022-08-19T01:01:34;13.50;;;8.20;;
5428;SDS011;2737;52.386;9.980;2022-08-19T01:04:03;13.20;;;8.20;;
5428;SDS011;2737;52.386;9.980;2022-08-19T01:06:30;12.67;;;7.33;;
5428;SDS011;2737;52.386;9.980;2022-08-19T01:08:58;9.80;;;7.70;;
5428;SDS011;2737;52.386;9.980;2022-08-19T01:11:26;13.70;;;7.90;;
5428;SDS011;2737;52.386;9.980;2022-08-19T01:13:54;12.03;;;7.60;;
5428;SDS011;2737;52.386;9.980;2022-08-19T01:16:22;12.57;;;7.70;;
5428;SDS011;2737;52.386;9.980;2022-08-19T01:18:52;13.67;;;7.70;;
5428;SDS011;2737;52.386;9.980;2022-08-19T01:21:22;12.43;;;8.70;;
5428;SDS011;2737;52.386;9.980;2022-08-19T01:23:56;13.73;;;8.77;;
5428;SDS011;2737;52.386;9.980;2022-08-19T01:26:24;12.93;;;8.67;;
5428;SDS011;2737;52.386;9.980;2022-08-19T01:28:53;12.07;;;8.13;;
5428;SDS011;2737;52.386;9.980;2022-08-19T01:31:23;13.50;;;9.03;;
5428;SDS011;2737;52.386;9.980;2022-08-19T01:33:56;11.83;;;8.50;;
5428;SDS011;2737;52.386;9.980;2022-08-19T01:36:26;11.30;;;8.30;;
5428;SDS011;2737;52.386;9.980;2022-08-19T01:38:54;13.03;;;8.17;;
5428;SDS011;2737;52.386;9.980;2022-08-19T01:41:24;16.87;;;9.00;;
5428;SDS011;2737;52.386;9.980;2022-08-19T01:43:52;12.20;;;7.90;;
5428;SDS011;2737;52.386;9.980;2022-08-19T01:46:20;16.13;;;7.80;;
5428;SDS011;2737;52.386;9.980;2022-08-19T01:48:47;17.03;;;8.50;;
5428;SDS011;2737;52.386;9.980;2022-08-19T01:51:15;12.90;;;8.27;;
5428;SDS011;2737;52.386;9.980;2022-08-19T01:53:45;11.60;;;8.00;;
5428;SDS011;2737;52.386;9.980;2022-08-19T01:56:15;12.57;;;7.50;;
5428;SDS011;2737;52.386;9.980;2022-08-19T01:58:43;12.60;;;8.30;;
5428;SDS011;2737;52.386;9.980;2022-08-19T02:01:15;10.57;;;8.40;;
5428;SDS011;2737;52.386;9.980;2022-08-19T02:03:43;13.33;;;8.27;;
5428;SDS011;2737;52.386;9.980;2022-08-19T02:06:10;10.83;;;8.43;;
5428;SDS011;2737;52.386;9.980;2022-08-19T02:08:37;12.83;;;8.30;;
5428;SDS011;2737;52.386;9.980;2022-08-19T02:11:06;10.83;;;7.37;;
5428;SDS011;2737;52.386;9.980;2022-08-19T02:13:35;10.10;;;7.93;;
5428;SDS011;2737;52.386;9.980;2022-08-19T02:16:02;12.50;;;8.80;;
5428;SDS011;2737;52.386;9.980;2022-08-19T02:18:29;11.90;;;8.37;;
5428;SDS011;2737;52.386;9.980;2022-08-19T02:20:56;12.03;;;8.67;;
5428;SDS011;2737;52.386;9.980;2022-08-19T02:23:23;13.57;;;8.13;;
5428;SDS011;2737;52.386;9.980;2022-08-19T02:25:52;16.33;;;8.50;;
5428;SDS011;2737;52.386;9.980;2022-08-19T02:28:19;12.67;;;8.03;;
5428;SDS011;2737;52.386;9.980;2022-08-19T02:30:47;12.13;;;8.70;;
5428;SDS011;2737;52.386;9.980;2022-08-19T02:33:15;12.07;;;8.20;;
5428;SDS011;2737;52.386;9.980;2022-08-19T02:35:42;13.97;;;8.97;;
5428;SDS011;2737;52.386;9.980;2022-08-19T02:38:10;12.97;;;9.37;;
5428;SDS011;2737;52.386;9.980;2022-08-19T02:40:53;16.90;;;9.87;;
5428;SDS011;2737;52.386;9.980;2022-08-19T02:43:22;13.20;;;9.00;;
5428;SDS011;2737;52.386;9.980;2022-08-19T02:45:51;11.20;;;9.27;;
5428;SDS011;2737;52.386;9.980;2022-08-19T02:48:19;18.93;;;10.27;;
5428;SDS011;2737;52.386;9.980;2022-08-19T02:50:48;15.40;;;8.83;;
5428;SDS011;2737;52.386;9.980;2022-08-19T02:53:19;15.87;;;9.43;;
5428;SDS011;2737;52.386;9.980;2022-08-19T02:55:48;15.83;;;9.20;;
5428;SDS011;2737;52.386;9.980;2022-08-19T02:58:16;16.00;;;10.13;;
5428;SDS011;2737;52.386;9.980;2022-08-19T03:00:45;13.83;;;9.87;;
5428;SDS011;2737;52.386;9.980;2022-08-19T03:03:16;13.10;;;9.03;;
5428;SDS011;2737;52.386;9.980;2022-08-19T03:05:43;14.33;;;8.60;;
5428;SDS011;2737;52.386;9.980;2022-08-19T03:08:12;12.17;;;8.50;;
5428;SDS011;2737;52.386;9.980;2022-08-19T03:10:40;12.80;;;9.53;;
5428;SDS011;2737;52.386;9.980;2022-08-19T03:13:10;13.93;;;9.70;;
5428;SDS011;2737;52.386;9.980;2022-08-19T03:15:41;13.73;;;9.73;;
5428;SDS011;2737;52.386;9.980;2022-08-19T03:18:10;15.40;;;9.47;;
5428;SDS011;2737;52.386;9.980;2022-08-19T03:20:43;12.43;;;9.13;;
5428;SDS011;2737;52.386;9.980;2022-08-19T03:23:11;13.27;;;9.40;;
5428;SDS011;2737;52.386;9.980;2022-08-19T03:25:42;12.30;;;8.70;;
5428;SDS011;2737;52.386;9.980;2022-08-19T03:28:12;14.73;;;9.30;;
5428;SDS011;2737;52.386;9.980;2022-08-19T03:30:40;13.23;;;8.63;;
5428;SDS011;2737;52.386;9.980;2022-08-19T03:33:10;14.83;;;9.60;;
5428;SDS011;2737;52.386;9.980;2022-08-19T03:35:41;15.60;;;9.20;;
5428;SDS011;2737;52.386;9.980;2022-08-19T03:38:10;12.40;;;9.20;;
5428;SDS011;2737;52.386;9.980;2022-08-19T03:40:37;13.30;;;8.70;;
5428;SDS011;2737;52.386;9.980;2022-08-19T03:43:04;12.73;;;8.47;;
5428;SDS011;2737;52.386;9.980;2022-08-19T03:45:31;11.60;;;8.43;;
5428;SDS011;2737;52.386;9.980;2022-08-19T03:47:58;14.50;;;9.80;;
5428;SDS011;2737;52.386;9.980;2022-08-19T03:50:25;14.07;;;9.30;;
5428;SDS011;2737;52.386;9.980;2022-08-19T03:52:54;16.33;;;10.57;;
5428;SDS011;2737;52.386;9.980;2022-08-19T03:55:21;17.60;;;10.23;;
5428;SDS011;2737;52.386;9.980;2022-08-19T03:57:49;15.00;;;10.27;;
5428;SDS011;2737;52.386;9.980;2022-08-19T04:00:17;18.10;;;9.27;;
5428;SDS011;2737;52.386;9.980;2022-08-19T04:02:44;11.63;;;9.50;;
5428;SDS011;2737;52.386;9.980;2022-08-19T04:05:11;19.83;;;9.93;;
5428;SDS011;2737;52.386;9.980;2022-08-19T04:07:39;15.97;;;9.40;;
5428;SDS011;2737;52.386;9.980;2022-08-19T04:10:07;13.23;;;9.93;;
5428;SDS011;2737;52.386;9.980;2022-08-19T04:12:35;14.93;;;9.87;;
5428;SDS011;2737;52.386;9.980;2022-08-19T04:15:03;19.47;;;10.63;;
5428;SDS011;2737;52.386;9.980;2022-08-19T04:17:31;13.30;;;9.67;;
5428;SDS011;2737;52.386;9.980;2022-08-19T04:19:58;13.00;;;10.17;;
5428;SDS011;2737;52.386;9.980;2022-08-19T04:22:26;15.47;;;9.80;;
5428;SDS011;2737;52.386;9.980;2022-08-19T04:24:53;17.40;;;8.77;;
5428;SDS011;2737;52.386;9.980;2022-08-19T04:27:21;19.13;;;9.87;;
5428;SDS011;2737;52.386;9.980;2022-08-19T04:29:48;14.30;;;8.67;;
5428;SDS011;2737;52.386;9.980;2022-08-19T04:32:15;14.03;;;9.57;;
5428;SDS011;2737;52.386;9.980;2022-08-19T04:34:42;14.23;;;9.27;;
5428;SDS011;2737;52.386;9.980;2022-08-19T04:37:09;21.43;;;9.97;;
5428;SDS011;2737;52.386;9.980;2022-08-19T04:39:37;10.43;;;8.27;;
5428;SDS011;2737;52.386;9.980;2022-08-19T04:42:24;14.70;;;9.23;;
5428;SDS011;2737;52.386;9.980;2022-08-19T04:45:07;18.40;;;10.27;;
5428;SDS011;2737;52.386;9.980;2022-08-19T04:47:36;13.93;;;9.23;;
5428;SDS011;2737;52.386;9.980;2022-08-19T04:50:05;14.17;;;8.33;;
5428;SDS011;2737;52.386;9.980;2022-08-19T04:52:32;12.13;;;8.77;;
5428;SDS011;2737;52.386;9.980;2022-08-19T04:55:00;14.97;;;9.40;;
5428;SDS011;2737;52.386;9.980;2022-08-19T04:57:28;15.97;;;9.20;;
5428;SDS011;2737;52.386;9.980;2022-08-19T04:59:55;17.33;;;9.00;;
5428;SDS011;2737;52.386;9.980;2022-08-19T05:02:23;15.63;;;8.30;;
5428;SDS011;2737;52.386;9.980;2022-08-19T05:04:55;13.13;;;8.23;;
5428;SDS011;2737;52.386;9.980;2022-08-19T05:07:23;14.73;;;9.27;;
5428;SDS011;2737;52.386;9.980;2022-08-19T05:09:51;16.23;;;8.47;;
5428;SDS011;2737;52.386;9.980;2022-08-19T05:12:18;14.43;;;8.20;;
5428;SDS011;2737;52.386;9.980;2022-08-19T05:14:46;15.70;;;9.20;;
5428;SDS011;2737;52.386;9.980;2022-08-19T05:17:14;16.70;;;8.30;;
5428;SDS011;2737;52.386;9.980;2022-08-19T05:19:41;12.60;;;9.50;;
5428;SDS011;2737;52.386;9.980;2022-08-19T05:22:25;12.90;;;8.20;;
5428;SDS011;2737;52.386;9.980;2022-08-19T05:25:00;13.30;;;8.53;;
5428;SDS011;2737;52.386;9.980;2022-08-19T05:27:29;13.53;;;9.40;;
5428;SDS011;2737;52.386;9.980;2022-08-19T05:29:58;16.17;;;10.00;;
5428;SDS011;2737;52.386;9.980;2022-08-19T05:32:26;12.77;;;8.17;;
5428;SDS011;2737;52.386;9.980;2022-08-19T05:34:53;13.20;;;8.83;;
5428;SDS011;2737;52.386;9.980;2022-08-19T05:37:20;18.13;;;9.13;;
5428;SDS011;2737;52.386;9.980;2022-08-19T05:39:47;12.47;;;8.47;;
5428;SDS011;2737;52.386;9.980;2022-08-19T05:42:15;21.70;;;9.50;;
5428;SDS011;2737;52.386;9.980;2022-08-19T05:44:44;11.60;;;7.90;;
5428;SDS011;2737;52.386;9.980;2022-08-19T05:47:13;15.93;;;8.80;;
5428;SDS011;2737;52.386;9.980;2022-08-19T05:49:41;11.10;;;8.17;;
5428;SDS011;2737;52.386;9.980;2022-08-19T05:52:09;19.77;;;9.70;;
5428;SDS011;2737;52.386;9.980;2022-08-19T05:54:39;14.37;;;10.30;;
5428;SDS011;2737;52.386;9.980;2022-08-19T05:57:07;11.80;;;8.20;;
5428;SDS011;2737;52.386;9.980;2022-08-19T05:59:35;14.13;;;8.60;;
5428;SDS011;2737;52.386;9.980;2022-08-19T06:02:03;16.87;;;9.07;;
5428;SDS011;2737;52.386;9.980;2022-08-19T06:04:33;15.13;;;9.40;;
5428;SDS011;2737;52.386;9.980;2022-08-19T06:07:00;15.67;;;10.10;;
5428;SDS011;2737;52.386;9.980;2022-08-19T06:09:28;18.53;;;10.20;;
5428;SDS011;2737;52.386;9.980;2022-08-19T06:11:57;15.40;;;9.60;;
5428;SDS011;2737;52.386;9.980;2022-08-19T06:14:26;20.03;;;9.50;;
5428;SDS011;2737;52.386;9.980;2022-08-19T06:16:54;12.03;;;9.73;;
5428;SDS011;2737;52.386;9.980;2022-08-19T06:19:22;15.07;;;8.30;;
5428;SDS011;2737;52.386;9.980;2022-08-19T06:21:52;15.87;;;8.67;;
5428;SDS011;2737;52.386;9.980;2022-08-19T06:24:21;11.20;;;8.67;;
5428;SDS011;2737;52.386;9.980;2022-08-19T06:26:50;15.20;;;9.60;;
5428;SDS011;2737;52.386;9.980;2022-08-19T06:29:19;9.50;;;7.33;;
5428;SDS011;2737;52.386;9.980;2022-08-19T06:31:49;12.00;;;7.97;;
5428;SDS011;2737;52.386;9.980;2022-08-19T06:34:18;12.20;;;8.40;;
5428;SDS011;2737;52.386;9.980;2022-08-19T06:36:47;14.47;;;7.33;;
5428;SDS011;2737;52.386;9.980;2022-08-19T06:39:18;11.80;;;7.87;;
5428;SDS011;2737;52.386;9.980;2022-08-19T06:41:47;11.17;;;7.60;;
5428;SDS011;2737;52.386;9.980;2022-08-19T06:44:16;11.43;;;7.10;;
5428;SDS011;2737;52.386;9.980;2022-08-19T06:46:44;12.33;;;7.57;;
5428;SDS011;2737;52.386;9.980;2022-08-19T06:49:13;11.00;;;7.40;;
5428;SDS011;2737;52.386;9.980;2022-08-19T06:51:41;19.40;;;8.20;;
5428;SDS011;2737;52.386;9.980;2022-08-19T06:54:09;10.57;;;7.80;;
5428;SDS011;2737;52.386;9.980;2022-08-19T06:56:38;9.93;;;7.23;;
5428;SDS011;2737;52.386;9.980;2022-08-19T06:59:06;12.30;;;7.80;;
5428;SDS011;2737;52.386;9.980;2022-08-19T07:01:35;14.33;;;7.63;;
5428;SDS011;2737;52.386;9.980;2022-08-19T07:04:03;14.60;;;7.97;;
5428;SDS011;2737;52.386;9.980;2022-08-19T07:06:31;9.93;;;7.30;;
5428;SDS011;2737;52.386;9.980;2022-08-19T07:08:58;12.20;;;7.70;;
5428;SDS011;2737;52.386;9.980;2022-08-19T07:11:25;13.80;;;7.03;;
5428;SDS011;2737;52.386;9.980;2022-08-19T07:13:54;15.40;;;7.20;;
5428;SDS011;2737;52.386;9.980;2022-08-19T07:16:21;11.07;;;7.40;;
5428;SDS011;2737;52.386;9.980;2022-08-19T07:18:49;9.00;;;6.97;;
5428;SDS011;2737;52.386;9.980;2022-08-19T07:21:20;13.27;;;7.30;;
5428;SDS011;2737;52.386;9.980;2022-08-19T07:23:49;12.33;;;7.27;;
5428;SDS011;2737;52.386;9.980;2022-08-19T07:26:19;10.73;;;6.77;;
5428;SDS011;2737;52.386;9.980;2022-08-19T07:28:48;9.03;;;6.97;;
5428;SDS011;2737;52.386;9.980;2022-08-19T07:31:18;10.10;;;6.40;;
5428;SDS011;2737;52.386;9.980;2022-08-19T07:33:46;15.00;;;6.43;;
5428;SDS011;2737;52.386;9.980;2022-08-19T07:36:15;9.30;;;6.57;;
5428;SDS011;2737;52.386;9.980;2022-08-19T07:38:48;9.53;;;6.90;;
5428;SDS011;2737;52.386;9.980;2022-08-19T07:41:17;7.30;;;6.30;;
5428;SDS011;2737;52.386;9.980;2022-08-19T07:43:46;8.67;;;6.77;;
5428;SDS011;2737;52.386;9.980;2022-08-19T07:46:14;8.77;;;6.10;;
5428;SDS011;2737;52.386;9.980;2022-08-19T07:48:43;9.17;;;6.77;;
5428;SDS011;2737;52.386;9.980;2022-08-19T07:51:11;9.97;;;5.77;;
5428;SDS011;2737;52.386;9.980;2022-08-19T07:53:39;10.07;;;6.07;;
5428;SDS011;2737;52.386;9.980;2022-08-19T07:56:08;8.10;;;5.57;;
5428;SDS011;2737;52.386;9.980;2022-08-19T07:58:36;9.80;;;6.10;;
5428;SDS011;2737;52.386;9.980;2022-08-19T08:01:05;7.50;;;5.80;;
5428;SDS011;2737;52.386;9.980;2022-08-19T08:03:35;8.10;;;6.60;;
5428;SDS011;2737;52.386;9.980;2022-08-19T08:06:22;10.63;;;5.73;;
5428;SDS011;2737;52.386;9.980;2022-08-19T08:09:07;8.60;;;6.30;;
5428;SDS011;2737;52.386;9.980;2022-08-19T08:11:43;10.60;;;6.90;;
5428;SDS011;2737;52.386;9.980;2022-08-19T08:14:14;10.23;;;6.73;;
5428;SDS011;2737;52.386;9.980;2022-08-19T08:16:42;12.00;;;7.20;;
5428;SDS011;2737;52.386;9.980;2022-08-19T08:19:11;12.23;;;7.13;;
5428;SDS011;2737;52.386;9.980;2022-08-19T08:21:41;9.03;;;7.40;;
5428;SDS011;2737;52.386;9.980;2022-08-19T08:24:08;8.97;;;6.53;;
5428;SDS011;2737;52.386;9.980;2022-08-19T08:26:37;11.93;;;6.83;;
5428;SDS011;2737;52.386;9.980;2022-08-19T08:29:05;11.23;;;6.30;;
5428;SDS011;2737;52.386;9.980;2022-08-19T08:31:37;8.50;;;6.80;;
5428;SDS011;2737;52.386;9.980;2022-08-19T08:34:05;9.73;;;6.40;;
5428;SDS011;2737;52.386;9.980;2022-08-19T08:36:35;7.13;;;5.33;;
5428;SDS011;2737;52.386;9.980;2022-08-19T08:39:07;6.47;;;5.87;;
5428;SDS011;2737;52.386;9.980;2022-08-19T08:41:37;7.97;;;6.33;;
5428;SDS011;2737;52.386;9.980;2022-08-19T08:44:13;7.00;;;6.00;;
5428;SDS011;2737;52.386;9.980;2022-08-19T08:46:44;14.87;;;7.40;;
5428;SDS011;2737;52.386;9.980;2022-08-19T08:49:18;8.77;;;6.57;;
5428;SDS011;2737;52.386;9.980;2022-08-19T08:51:54;9.90;;;6.87;;
5428;SDS011;2737;52.386;9.980;2022-08-19T08:54:30;10.17;;;7.13;;
5428;SDS011;2737;52.386;9.980;2022-08-19T08:57:02;7.93;;;6.10;;
5428;SDS011;2737;52.386;9.980;2022-08-19T08:59:34;11.30;;;6.07;;
5428;SDS011;2737;52.386;9.980;2022-08-19T09:02:03;12.37;;;6.53;;
5428;SDS011;2737;52.386;9.980;2022-08-19T09:04:30;7.47;;;5.90;;
5428;SDS011;2737;52.386;9.980;2022-08-19T09:07:00;10.90;;;5.50;;
5428;SDS011;2737;52.386;9.980;2022-08-19T09:09:45;8.80;;;5.50;;
5428;SDS011;2737;52.386;9.980;2022-08-19T09:12:16;7.43;;;5.57;;
5428;SDS011;2737;52.386;9.980;2022-08-19T09:14:51;8.93;;;6.70;;
5428;SDS011;2737;52.386;9.980;2022-08-19T09:17:22;9.87;;;6.03;;
5428;SDS011;2737;52.386;9.980;2022-08-19T09:19:56;8.40;;;5.53;;
5428;SDS011;2737;52.386;9.980;2022-08-19T09:22:25;7.20;;;5.13;;
5428;SDS011;2737;52.386;9.980;2022-08-19T09:24:54;15.30;;;6.00;;
5428;SDS011;2737;52.386;9.980;2022-08-19T09:27:22;5.10;;;4.40;;
5428;SDS011;2737;52.386;9.980;2022-08-19T09:29:50;4.20;;;3.77;;
5428;SDS011;2737;52.386;9.980;2022-08-19T09:32:18;7.80;;;4.30;;
5428;SDS011;2737;52.386;9.980;2022-08-19T09:34:46;6.93;;;4.80;;
5428;SDS011;2737;52.386;9.980;2022-08-19T09:37:13;4.70;;;3.87;;
5428;SDS011;2737;52.386;9.980;2022-08-19T09:39:40;5.50;;;4.30;;
5428;SDS011;2737;52.386;9.980;2022-08-19T09:42:09;7.33;;;5.40;;
5428;SDS011;2737;52.386;9.980;2022-08-19T09:44:38;6.63;;;5.00;;
5428;SDS011;2737;52.386;9.980;2022-08-19T09:47:06;10.97;;;6.00;;
5428;SDS011;2737;52.386;9.980;2022-08-19T09:49:34;5.30;;;4.67;;
5428;SDS011;2737;52.386;9.980;2022-08-19T09:52:03;9.67;;;5.90;;
5428;SDS011;2737;52.386;9.980;2022-08-19T09:54:30;9.00;;;5.20;;
5428;SDS011;2737;52.386;9.980;2022-08-19T09:56:57;8.23;;;6.03;;
5428;SDS011;2737;52.386;9.980;2022-08-19T09:59:26;6.03;;;4.83;;
5428;SDS011;2737;52.386;9.980;2022-08-19T10:01:54;7.30;;;5.37;;
5428;SDS011;2737;52.386;9.980;2022-08-19T10:04:22;6.10;;;4.67;;
5428;SDS011;2737;52.386;9.980;2022-08-19T10:07:09;7.17;;;6.07;;
5428;SDS011;2737;52.386;9.980;2022-08-19T10:09:37;10.00;;;5.63;;
5428;SDS011;2737;52.386;9.980;2022-08-19T10:12:06;6.63;;;5.17;;
5428;SDS011;2737;52.386;9.980;2022-08-19T10:14:35;7.33;;;4.80;;
5428;SDS011;2737;52.386;9.980;2022-08-19T10:17:02;8.97;;;6.00;;
5428;SDS011;2737;52.386;9.980;2022-08-19T10:19:30;9.63;;;5.57;;
5428;SDS011;2737;52.386;9.980;2022-08-19T10:22:02;10.83;;;5.47;;
5428;SDS011;2737;52.386;9.980;2022-08-19T10:24:30;8.07;;;5.97;;
5428;SDS011;2737;52.386;9.980;2022-08-19T10:26:58;7.50;;;5.30;;
5428;SDS011;2737;52.386;9.980;2022-08-19T10:29:28;8.13;;;5.40;;
5428;SDS011;2737;52.386;9.980;2022-08-19T10:31:58;7.00;;;5.57;;
5428;SDS011;2737;52.386;9.980;2022-08-19T10:34:27;7.13;;;5.23;;
5428;SDS011;2737;52.386;9.980;2022-08-19T10:36:55;6.87;;;5.70;;
5428;SDS011;2737;52.386;9.980;2022-08-19T10:39:23;9.03;;;6.20;;
5428;SDS011;2737;52.386;9.980;2022-08-19T10:41:50;9.52;;;5.93;;
5428;SDS011;2737;52.386;9.980;2022-08-19T10:44:17;6.60;;;5.90;;
5428;SDS011;2737;52.386;9.980;2022-08-19T10:46:46;10.55;;;5.55;;
5428;SDS011;2737;52.386;9.980;2022-08-19T10:49:14;6.68;;;5.80;;
5428;SDS011;2737;52.386;9.980;2022-08-19T10:51:42;6.60;;;5.63;;
5428;SDS011;2737;52.386;9.980;2022-08-19T10:54:26;7.95;;;5.47;;
5428;SDS011;2737;52.386;9.980;2022-08-19T10:57:07;8.45;;;5.82;;
5428;SDS011;2737;52.386;9.980;2022-08-19T10:59:34;11.90;;;5.87;;
5428;SDS011;2737;52.386;9.980;2022-08-19T11:02:03;8.43;;;5.70;;
5428;SDS011;2737;52.386;9.980;2022-08-19T11:04:33;7.53;;;5.20;;
5428;SDS011;2737;52.386;9.980;2022-08-19T11:07:00;6.10;;;5.45;;
5428;SDS011;2737;52.386;9.980;2022-08-19T11:09:27;12.20;;;5.10;;
5428;SDS011;2737;52.386;9.980;2022-08-19T11:11:54;8.25;;;5.07;;
5428;SDS011;2737;52.386;9.980;2022-08-19T11:14:22;6.10;;;4.90;;
5428;SDS011;2737;52.386;9.980;2022-08-19T11:16:50;9.50;;;5.60;;
5428;SDS011;2737;52.386;9.980;2022-08-19T11:19:21;8.07;;;5.07;;
5428;SDS011;2737;52.386;9.980;2022-08-19T11:21:51;8.02;;;5.70;;
5428;SDS011;2737;52.386;9.980;2022-08-19T11:24:20;6.88;;;5.65;;
5428;SDS011;2737;52.386;9.980;2022-08-19T11:26:48;8.80;;;5.68;;
5428;SDS011;2737;52.386;9.980;2022-08-19T11:29:18;9.68;;;4.82;;
5428;SDS011;2737;52.386;9.980;2022-08-19T11:31:47;7.13;;;5.15;;
5428;SDS011;2737;52.386;9.980;2022-08-19T11:34:16;14.10;;;4.90;;
5428;SDS011;2737;52.386;9.980;2022-08-19T11:36:45;5.05;;;4.10;;
5428;SDS011;2737;52.386;9.980;2022-08-19T11:39:16;9.13;;;5.53;;
5428;SDS011;2737;52.386;9.980;2022-08-19T11:41:45;5.07;;;3.90;;
5428;SDS011;2737;52.386;9.980;2022-08-19T11:44:12;6.13;;;4.07;;
5428;SDS011;2737;52.386;9.980;2022-08-19T11:46:40;6.03;;;4.35;;
5428;SDS011;2737;52.386;9.980;2022-08-19T11:49:11;5.63;;;4.38;;
5428;SDS011;2737;52.386;9.980;2022-08-19T11:51:39;7.88;;;4.20;;
5428;SDS011;2737;52.386;9.980;2022-08-19T11:54:08;6.22;;;4.28;;
5428;SDS011;2737;52.386;9.980;2022-08-19T11:56:37;8.07;;;4.20;;
5428;SDS011;2737;52.386;9.980;2022-08-19T11:59:05;4.60;;;4.10;;
5428;SDS011;2737;52.386;9.980;2022-08-19T12:01:33;5.85;;;4.18;;
5428;SDS011;2737;52.386;9.980;2022-08-19T12:04:00;4.60;;;3.53;;
5428;SDS011;2737;52.386;9.980;2022-08-19T12:06:30;5.00;;;3.55;;
5428;SDS011;2737;52.386;9.980;2022-08-19T12:09:00;4.75;;;2.85;;
5428;SDS011;2737;52.386;9.980;2022-08-19T12:11:29;4.28;;;3.20;;
5428;SDS011;2737;52.386;9.980;2022-08-19T12:14:00;4.15;;;3.70;;
5428;SDS011;2737;52.386;9.980;2022-08-19T12:16:27;3.15;;;2.85;;
5428;SDS011;2737;52.386;9.980;2022-08-19T12:18:57;4.05;;;2.97;;
5428;SDS011;2737;52.386;9.980;2022-08-19T12:21:28;4.32;;;3.15;;
5428;SDS011;2737;52.386;9.980;2022-08-19T12:23:56;4.35;;;3.25;;
5428;SDS011;2737;52.386;9.980;2022-08-19T12:26:26;7.82;;;3.38;;
5428;SDS011;2737;52.386;9.980;2022-08-19T12:28:54;3.80;;;3.17;;
5428;SDS011;2737;52.386;9.980;2022-08-19T12:31:22;4.03;;;3.13;;
5428;SDS011;2737;52.386;9.980;2022-08-19T12:33:49;3.65;;;3.35;;
5428;SDS011;2737;52.386;9.980;2022-08-19T12:36:17;4.93;;;3.63;;
5428;SDS011;2737;52.386;9.980;2022-08-19T12:38:44;4.20;;;3.80;;
5428;SDS011;2737;52.386;9.980;2022-08-19T12:41:12;4.28;;;3.20;;
5428;SDS011;2737;52.386;9.980;2022-08-19T12:43:42;4.43;;;3.38;;
5428;SDS011;2737;52.386;9.980;2022-08-19T12:46:10;3.47;;;3.05;;
5428;SDS011;2737;52.386;9.980;2022-08-19T12:48:40;3.33;;;2.97;;
5428;SDS011;2737;52.386;9.980;2022-08-19T12:51:10;4.10;;;3.47;;
5428;SDS011;2737;52.386;9.980;2022-08-19T12:53:38;6.40;;;3.88;;
5428;SDS011;2737;52.386;9.980;2022-08-19T12:56:06;4.20;;;3.25;;
5428;SDS011;2737;52.386;9.980;2022-08-19T12:58:33;5.15;;;3.22;;
5428;SDS011;2737;52.386;9.980;2022-08-19T13:01:05;3.88;;;3.22;;
5428;SDS011;2737;52.386;9.980;2022-08-19T13:03:33;3.28;;;2.60;;
5428;SDS011;2737;52.386;9.980;2022-08-19T13:06:01;2.55;;;2.35;;
5428;SDS011;2737;52.386;9.980;2022-08-19T13:08:28;6.00;;;2.78;;
5428;SDS011;2737;52.386;9.980;2022-08-19T13:10:55;5.38;;;2.45;;
5428;SDS011;2737;52.386;9.980;2022-08-19T13:13:23;3.03;;;2.30;;
5428;SDS011;2737;52.386;9.980;2022-08-19T13:15:51;4.18;;;2.40;;
5428;SDS011;2737;52.386;9.980;2022-08-19T13:18:18;8.07;;;2.60;;
5428;SDS011;2737;52.386;9.980;2022-08-19T13:20:45;3.13;;;2.00;;
5428;SDS011;2737;52.386;9.980;2022-08-19T13:23:13;5.45;;;2.30;;
5428;SDS011;2737;52.386;9.980;2022-08-19T13:25:40;3.85;;;2.38;;
5428;SDS011;2737;52.386;9.980;2022-08-19T13:28:07;2.30;;;2.05;;
5428;SDS011;2737;52.386;9.980;2022-08-19T13:30:34;2.72;;;2.05;;
5428;SDS011;2737;52.386;9.980;2022-08-19T13:33:15;3.58;;;2.40;;
5428;SDS011;2737;52.386;9.980;2022-08-19T13:35:44;2.50;;;2.30;;
5428;SDS011;2737;52.386;9.980;2022-08-19T13:38:22;2.45;;;2.08;;
5428;SDS011;2737;52.386;9.980;2022-08-19T13:40:50;2.53;;;2.30;;
5428;SDS011;2737;52.386;9.980;2022-08-19T13:43:19;4.13;;;2.40;;
5428;SDS011;2737;52.386;9.980;2022-08-19T13:45:48;3.33;;;2.45;;
5428;SDS011;2737;52.386;9.980;2022-08-19T13:48:19;4.90;;;2.53;;
5428;SDS011;2737;52.386;9.980;2022-08-19T13:50:46;5.75;;;2.63;;
5428;SDS011;2737;52.386;9.980;2022-08-19T13:53:13;4.30;;;2.40;;
5428;SDS011;2737;52.386;9.980;2022-08-19T13:55:42;3.35;;;2.33;;
5428;SDS011;2737;52.386;9.980;2022-08-19T13:58:10;2.50;;;2.13;;
5428;SDS011;2737;52.386;9.980;2022-08-19T14:00:40;3.15;;;2.20;;
5428;SDS011;2737;52.386;9.980;2022-08-19T14:03:08;2.33;;;2.13;;
5428;SDS011;2737;52.386;9.980;2022-08-19T14:05:36;3.80;;;2.50;;
5428;SDS011;2737;52.386;9.980;2022-08-19T14:08:03;2.60;;;2.35;;
5428;SDS011;2737;52.386;9.980;2022-08-19T14:10:30;4.78;;;2.60;;
5428;SDS011;2737;52.386;9.980;2022-08-19T14:13:01;7.65;;;2.45;;
5428;SDS011;2737;52.386;9.980;2022-08-19T14:15:29;3.13;;;2.45;;
5428;SDS011;2737;52.386;9.980;2022-08-19T14:17:56;2.63;;;2.25;;
5428;SDS011;2737;52.386;9.980;2022-08-19T14:20:24;3.25;;;2.30;;
5428;SDS011;2737;52.386;9.980;2022-08-19T14:22:51;6.63;;;2.25;;
5428;SDS011;2737;52.386;9.980;2022-08-19T14:25:21;2.58;;;2.08;;
5428;SDS011;2737;52.386;9.980;2022-08-19T14:27:49;3.72;;;2.20;;
5428;SDS011;2737;52.386;9.980;2022-08-19T14:30:19;2.10;;;1.77;;
5428;SDS011;2737;52.386;9.980;2022-08-19T14:32:48;2.40;;;1.80;;
5428;SDS011;2737;52.386;9.980;2022-08-19T14:35:15;2.70;;;1.77;;
5428;SDS011;2737;52.386;9.980;2022-08-19T14:37:44;4.78;;;1.80;;
5428;SDS011;2737;52.386;9.980;2022-08-19T14:40:12;4.00;;;2.10;;
5428;SDS011;2737;52.386;9.980;2022-08-19T14:42:41;3.60;;;2.65;;
5428;SDS011;2737;52.386;9.980;2022-08-19T14:45:08;2.35;;;2.15;;
5428;SDS011;2737;52.386;9.980;2022-08-19T14:47:38;6.30;;;1.63;;
5428;SDS011;2737;52.386;9.980;2022-08-19T14:50:06;2.75;;;2.00;;
5428;SDS011;2737;52.386;9.980;2022-08-19T14:52:34;3.25;;;2.13;;
5428;SDS011;2737;52.386;9.980;2022-08-19T14:55:01;2.67;;;2.47;;
5428;SDS011;2737;52.386;9.980;2022-08-19T14:57:28;3.00;;;1.75;;
5428;SDS011;2737;52.386;9.980;2022-08-19T14:59:56;2.80;;;2.00;;
5428;SDS011;2737;52.386;9.980;2022-08-19T15:02:23;2.05;;;1.80;;
5428;SDS011;2737;52.386;9.980;2022-08-19T15:04:51;3.55;;;1.88;;
5428;SDS011;2737;52.386;9.980;2022-08-19T15:07:20;9.38;;;1.88;;
5428;SDS011;2737;52.386;9.980;2022-08-19T15:09:48;1.70;;;1.60;;
5428;SDS011;2737;52.386;9.980;2022-08-19T15:12:16;1.95;;;1.60;;
5428;SDS011;2737;52.386;9.980;2022-08-19T15:14:44;2.92;;;1.60;;
5428;SDS011;2737;52.386;9.980;2022-08-19T15:17:15;1.70;;;1.60;;
5428;SDS011;2737;52.386;9.980;2022-08-19T15:19:43;1.92;;;1.65;;